Time;durP1;ratioP1;P1;durP2;ratioP2;P2;SDS_P1;SDS_P2;PMS_P1;PMS_P2;Temp;Humidity;BMP_temperature;BMP_pressure;BME280_temperature;BME280_humidity;BME280_pressure;Samples;Min_cycle;Max_cycle;Signal;HPM_P1;HPM_P2
2023/04/03 00:00:45;;;;;;;;;;;2.50;99.90;;;;;;5142677;27;19911;-47
2023/04/03 00:03:10;;;;;;;;;;;2.50;99.90;;;;;;5136283;27;19908;-49
2023/04/03 00:05:36;;;;;;;;;;;2.40;99.90;;;;;;5135409;27;19965;-46
2023/04/03 00:08:01;;;;;;;;;;;2.40;99.90;;;;;;5136053;27;19912;-47
2023/04/03 00:10:27;;;;;;;;;;;2.40;99.90;;;;;;5136365;27;19995;-47
2023/04/03 00:12:53;;;;;;;;;;;2.40;99.90;;;;;;5135451;27;19908;-51
2023/04/03 00:15:18;;;;;;;;;;;2.40;99.90;;;;;;5136025;27;19958;-46
2023/04/03 00:17:44;;;;;;;;;;;2.30;99.90;;;;;;5136139;27;19911;-47
2023/04/03 00:20:09;;;;;;;;;;;2.30;99.90;;;;;;5135407;27;19912;-47
2023/04/03 00:22:35;;;;;;;;;;;2.30;99.90;;;;;;5136135;27;19911;-46
2023/04/03 00:25:00;;;;;;;;;;;2.30;99.90;;;;;;5135893;27;19951;-47
2023/04/03 00:27:25;;;;;;;;;;;2.20;99.90;;;;;;5135111;27;19912;-49
2023/04/03 00:29:51;;;;;;;;;;;2.20;99.90;;;;;;5135819;27;20278;-49
2023/04/03 00:32:17;;;;;;;;;;;2.20;99.90;;;;;;5135636;27;19911;-49
2023/04/03 00:34:42;;;;;;;;;;;2.20;99.90;;;;;;5135013;27;19908;-49
2023/04/03 00:37:08;;;;;;;;;;;2.20;99.90;;;;;;5135720;27;19918;-45
2023/04/03 00:39:33;;;;;;;;;;;2.20;99.90;;;;;;5135060;27;20255;-49
2023/04/03 00:41:58;;;;;;;;;;;2.10;99.90;;;;;;5135659;27;20340;-51
2023/04/03 00:44:33;;;;;;;;;;;2.10;99.90;;;;;;5135475;27;19957;-47
2023/04/03 00:46:59;;;;;;;;;;;2.10;99.90;;;;;;5155495;27;19907;-47
2023/04/03 00:49:25;;;;;;;;;;;2.10;99.90;;;;;;5155991;27;20006;-51
2023/04/03 00:51:50;;;;;;;;;;;2.10;99.90;;;;;;5156074;27;19914;-48
2023/04/03 00:54:16;;;;;;;;;;;2.10;99.90;;;;;;5155133;27;19911;-50
2023/04/03 00:56:42;;;;;;;;;;;2.10;99.90;;;;;;5156115;27;20430;-47
2023/04/03 00:59:11;;;;;;;;;;;2.00;99.90;;;;;;5156169;27;19907;-48
2023/04/03 01:01:37;;;;;;;;;;;2.00;99.90;;;;;;5154920;27;19977;-48
2023/04/03 01:04:03;;;;;;;;;;;2.00;99.90;;;;;;5155759;27;20366;-49
2023/04/03 01:06:33;;;;;;;;;;;1.90;99.90;;;;;;5156126;27;19907;-46
2023/04/03 01:08:59;;;;;;;;;;;1.90;99.90;;;;;;5155050;27;19918;-46
2023/04/03 01:11:25;;;;;;;;;;;1.90;99.90;;;;;;5156013;27;19907;-50
2023/04/03 01:13:51;;;;;;;;;;;1.90;99.90;;;;;;5155261;27;20501;-49
2023/04/03 01:16:17;;;;;;;;;;;1.90;99.90;;;;;;5154840;27;19915;-46
2023/04/03 01:18:43;;;;;;;;;;;1.80;99.90;;;;;;5155396;27;19946;-47
2023/04/03 01:21:12;;;;;;;;;;;1.80;99.90;;;;;;5155528;27;20365;-51
2023/04/03 01:23:37;;;;;;;;;;;1.80;99.90;;;;;;5154883;27;19994;-46
2023/04/03 01:26:03;;;;;;;;;;;1.70;99.90;;;;;;5155503;27;19938;-48
2023/04/03 01:28:30;;;;;;;;;;;1.70;99.90;;;;;;5155265;27;20436;-49
2023/04/03 01:31:15;;;;;;;;;;;1.70;99.90;;;;;;5154595;27;19915;-49
2023/04/03 01:33:41;;;;;;;;;;;1.70;99.90;;;;;;5155520;27;20018;-47
2023/04/03 01:36:07;;;;;;;;;;;1.60;99.90;;;;;;5136800;27;19917;-48
2023/04/03 01:38:32;;;;;;;;;;;1.60;99.90;;;;;;5134511;27;20359;-47
2023/04/03 01:40:58;;;;;;;;;;;1.60;99.90;;;;;;5134448;27;19907;-47
2023/04/03 01:43:23;;;;;;;;;;;1.60;99.90;;;;;;5133679;27;19907;-46
2023/04/03 01:45:49;;;;;;;;;;;1.60;99.90;;;;;;5134432;27;20388;-48
2023/04/03 01:48:16;;;;;;;;;;;1.50;99.90;;;;;;5134121;27;19964;-47
2023/04/03 01:50:41;;;;;;;;;;;1.50;99.90;;;;;;5133535;27;19947;-47
2023/04/03 01:53:07;;;;;;;;;;;1.50;99.90;;;;;;5134265;27;19939;-48
2023/04/03 01:55:32;;;;;;;;;;;1.50;99.90;;;;;;5134271;27;20319;-50
2023/04/03 01:57:57;;;;;;;;;;;1.50;99.90;;;;;;5133359;27;19907;-48
2023/04/03 02:00:23;;;;;;;;;;;1.40;99.90;;;;;;5134109;27;19908;-45
2023/04/03 02:02:49;;;;;;;;;;;1.40;99.90;;;;;;5138523;27;20374;-47
2023/04/03 02:05:14;;;;;;;;;;;1.40;99.90;;;;;;5153561;27;19938;-48
2023/04/03 02:07:40;;;;;;;;;;;1.40;99.90;;;;;;5153080;27;20141;-49
2023/04/03 02:10:06;;;;;;;;;;;1.30;99.90;;;;;;5154468;27;19922;-49
2023/04/03 02:12:31;;;;;;;;;;;1.30;99.90;;;;;;5149360;27;19912;-48
2023/04/03 02:14:57;;;;;;;;;;;1.30;99.90;;;;;;5145001;27;19908;-52
2023/04/03 02:17:22;;;;;;;;;;;1.30;99.90;;;;;;5133875;27;19907;-48
2023/04/03 02:19:47;;;;;;;;;;;1.30;99.90;;;;;;5149339;27;19908;-48
2023/04/03 02:22:13;;;;;;;;;;;1.30;99.90;;;;;;5154484;27;20354;-47
2023/04/03 02:24:40;;;;;;;;;;;1.30;99.90;;;;;;5150340;27;19907;-47
2023/04/03 02:27:05;;;;;;;;;;;1.20;99.90;;;;;;5132904;27;20014;-49
2023/04/03 02:29:30;;;;;;;;;;;1.30;99.90;;;;;;5132779;27;20027;-47
2023/04/03 02:31:56;;;;;;;;;;;1.20;99.90;;;;;;5133732;27;19907;-46
2023/04/03 02:34:21;;;;;;;;;;;1.20;99.90;;;;;;5141654;27;19934;-51
2023/04/03 02:36:47;;;;;;;;;;;1.20;99.90;;;;;;5133639;28;19907;-49
2023/04/03 02:39:13;;;;;;;;;;;1.10;99.90;;;;;;5132763;28;19913;-48
2023/04/03 02:41:38;;;;;;;;;;;1.10;99.90;;;;;;5133656;28;19907;-46
2023/04/03 02:44:05;;;;;;;;;;;1.10;99.90;;;;;;5133367;28;20282;-48
2023/04/03 02:46:30;;;;;;;;;;;1.10;99.90;;;;;;5132769;28;19970;-49
2023/04/03 02:48:56;;;;;;;;;;;1.10;99.90;;;;;;5133495;28;19976;-49
2023/04/03 02:51:22;;;;;;;;;;;1.00;99.90;;;;;;5133324;28;19911;-49
2023/04/03 02:53:48;;;;;;;;;;;1.00;99.90;;;;;;5132593;28;19947;-48
2023/04/03 02:56:14;;;;;;;;;;;1.00;99.90;;;;;;5133360;28;19957;-47
2023/04/03 02:58:39;;;;;;;;;;;1.00;99.90;;;;;;5133363;28;20273;-51
2023/04/03 03:01:05;;;;;;;;;;;1.00;99.90;;;;;;5132257;28;19912;-50
2023/04/03 03:03:31;;;;;;;;;;;1.00;99.90;;;;;;5133293;27;20009;-47
2023/04/03 03:06:03;;;;;;;;;;;1.00;99.90;;;;;;5133431;28;20350;-48
2023/04/03 03:08:29;;;;;;;;;;;1.00;99.90;;;;;;5132500;28;19922;-48
2023/04/03 03:10:54;;;;;;;;;;;1.00;99.90;;;;;;5133245;27;20091;-51
2023/04/03 03:13:20;;;;;;;;;;;0.90;99.90;;;;;;5133210;28;20404;-49
2023/04/03 03:15:45;;;;;;;;;;;1.00;99.90;;;;;;5132518;28;19912;-49
2023/04/03 03:18:10;;;;;;;;;;;1.00;99.90;;;;;;5133174;28;19908;-48
2023/04/03 03:20:36;;;;;;;;;;;1.00;99.90;;;;;;5133383;28;19955;-48
2023/04/03 03:23:01;;;;;;;;;;;0.90;99.90;;;;;;5132256;28;19907;-51
2023/04/03 03:25:27;;;;;;;;;;;0.90;99.90;;;;;;5133066;28;19963;-49
2023/04/03 03:27:52;;;;;;;;;;;0.80;99.90;;;;;;5133222;28;19908;-51
2023/04/03 03:30:18;;;;;;;;;;;0.80;99.90;;;;;;5132204;28;20307;-50
2023/04/03 03:32:43;;;;;;;;;;;0.80;99.90;;;;;;5136398;27;19918;-49
2023/04/03 03:35:09;;;;;;;;;;;0.80;99.90;;;;;;5137875;27;19911;-49
2023/04/03 03:37:34;;;;;;;;;;;0.70;99.90;;;;;;5132305;28;19912;-46
2023/04/03 03:40:00;;;;;;;;;;;0.80;99.90;;;;;;5133125;27;20014;-49
2023/04/03 03:42:25;;;;;;;;;;;0.70;99.90;;;;;;5135591;27;19911;-47
2023/04/03 03:44:51;;;;;;;;;;;0.80;99.90;;;;;;5136874;27;19914;-48
2023/04/03 03:47:17;;;;;;;;;;;0.70;99.90;;;;;;5136980;27;19943;-48
2023/04/03 03:49:42;;;;;;;;;;;0.70;99.90;;;;;;5135893;27;20053;-48
2023/04/03 03:52:10;;;;;;;;;;;0.70;99.90;;;;;;5136722;27;20289;-51
2023/04/03 03:54:36;;;;;;;;;;;0.70;99.90;;;;;;5136427;27;20358;-50
2023/04/03 03:57:01;;;;;;;;;;;0.60;99.90;;;;;;5135569;27;19914;-52
2023/04/03 03:59:27;;;;;;;;;;;0.60;99.90;;;;;;5136931;27;20358;-47
2023/04/03 04:01:52;;;;;;;;;;;0.60;99.90;;;;;;5136354;27;19923;-52
2023/04/03 04:04:18;;;;;;;;;;;0.60;99.90;;;;;;5135611;27;19919;-50
2023/04/03 04:06:43;;;;;;;;;;;0.50;99.90;;;;;;5136373;27;19907;-49
2023/04/03 04:09:09;;;;;;;;;;;0.50;99.90;;;;;;5136185;27;19967;-53
2023/04/03 04:11:34;;;;;;;;;;;0.50;99.90;;;;;;5135244;27;19918;-49
2023/04/03 04:14:00;;;;;;;;;;;0.50;99.90;;;;;;5136183;27;19915;-49
2023/04/03 04:16:25;;;;;;;;;;;0.50;99.90;;;;;;5136054;27;19912;-49
2023/04/03 04:18:51;;;;;;;;;;;0.50;99.90;;;;;;5135490;27;20323;-53
2023/04/03 04:21:16;;;;;;;;;;;0.40;99.90;;;;;;5136026;27;19911;-50
2023/04/03 04:23:42;;;;;;;;;;;0.40;99.90;;;;;;5136065;27;19962;-53
2023/04/03 04:26:07;;;;;;;;;;;0.40;99.90;;;;;;5135045;27;19930;-50
2023/04/03 04:28:33;;;;;;;;;;;0.30;99.90;;;;;;5135811;27;19916;-50
2023/04/03 04:30:58;;;;;;;;;;;0.30;99.90;;;;;;5135935;27;19915;-48
2023/04/03 04:33:24;;;;;;;;;;;0.30;99.90;;;;;;5139974;27;20006;-51
2023/04/03 04:35:49;;;;;;;;;;;0.30;99.90;;;;;;5156640;27;20278;-50
2023/04/03 04:38:15;;;;;;;;;;;0.20;99.90;;;;;;5156318;27;19956;-51
2023/04/03 04:40:41;;;;;;;;;;;0.30;99.90;;;;;;5155566;27;20002;-52
2023/04/03 04:43:06;;;;;;;;;;;0.30;99.90;;;;;;5156304;27;19907;-49
2023/04/03 04:45:32;;;;;;;;;;;0.30;99.90;;;;;;5156441;27;19938;-51
2023/04/03 04:47:57;;;;;;;;;;;0.30;99.90;;;;;;5155342;27;20310;-49
2023/04/03 04:50:23;;;;;;;;;;;0.30;99.90;;;;;;5156195;27;19921;-50
2023/04/03 04:52:48;;;;;;;;;;;0.30;99.90;;;;;;5154582;27;19907;-49
2023/04/03 04:55:14;;;;;;;;;;;0.30;99.90;;;;;;5156072;27;19914;-50
2023/04/03 04:57:39;;;;;;;;;;;0.30;99.90;;;;;;5156113;27;19907;-50
2023/04/03 05:00:05;;;;;;;;;;;0.30;99.90;;;;;;5155357;27;19986;-50
2023/04/03 05:02:31;;;;;;;;;;;0.30;99.90;;;;;;5155848;27;19974;-49
2023/04/03 05:04:56;;;;;;;;;;;0.20;99.90;;;;;;5145339;27;20298;-50
2023/04/03 05:07:22;;;;;;;;;;;0.20;99.90;;;;;;5134284;27;20278;-48
2023/04/03 05:09:47;;;;;;;;;;;0.20;99.90;;;;;;5134952;27;19916;-50
2023/04/03 05:12:13;;;;;;;;;;;0.10;99.90;;;;;;5135089;27;20041;-51
2023/04/03 05:14:38;;;;;;;;;;;0.10;99.90;;;;;;5134121;27;19915;-47
2023/04/03 05:17:04;;;;;;;;;;;0.10;99.90;;;;;;5147118;27;20421;-49
2023/04/03 05:19:29;;;;;;;;;;;0.10;99.90;;;;;;5155132;27;19907;-49
2023/04/03 05:21:55;;;;;;;;;;;0.10;99.90;;;;;;5152317;27;19918;-51
2023/04/03 05:24:20;;;;;;;;;;;0.10;99.90;;;;;;5154204;27;19914;-47
2023/04/03 05:26:46;;;;;;;;;;;0.10;99.90;;;;;;5155179;27;20013;-50
2023/04/03 05:29:11;;;;;;;;;;;0.10;99.90;;;;;;5151891;27;19919;-51
2023/04/03 05:31:37;;;;;;;;;;;0.10;99.90;;;;;;5134818;27;19908;-49
2023/04/03 05:34:02;;;;;;;;;;;0.10;99.90;;;;;;5134599;27;19946;-51
2023/04/03 05:36:28;;;;;;;;;;;0.20;99.90;;;;;;5134067;27;19908;-47
2023/04/03 05:38:56;;;;;;;;;;;0.20;99.90;;;;;;5134201;27;20352;-47
2023/04/03 05:41:21;;;;;;;;;;;0.20;99.90;;;;;;5144938;27;20453;-48
2023/04/03 05:43:47;;;;;;;;;;;0.20;99.90;;;;;;5126818;27;19911;-48
2023/04/03 05:46:13;;;;;;;;;;;0.30;99.90;;;;;;5148887;27;19913;-47
2023/04/03 05:48:39;;;;;;;;;;;0.30;99.90;;;;;;5150571;27;19918;-50
2023/04/03 05:51:05;;;;;;;;;;;0.30;99.90;;;;;;5149835;27;19918;-49
2023/04/03 05:53:32;;;;;;;;;;;0.40;99.90;;;;;;5142778;27;19961;-49
2023/04/03 05:55:58;;;;;;;;;;;0.40;99.90;;;;;;5147242;27;19914;-50
2023/04/03 05:58:24;;;;;;;;;;;0.40;99.90;;;;;;5142162;27;19959;-50
2023/04/03 06:00:49;;;;;;;;;;;0.50;99.90;;;;;;5143235;27;19911;-52
2023/04/03 06:03:15;;;;;;;;;;;0.60;99.90;;;;;;5136266;27;19923;-47
2023/04/03 06:05:41;;;;;;;;;;;0.60;99.90;;;;;;5148362;27;20290;-51
2023/04/03 06:08:06;;;;;;;;;;;0.70;99.90;;;;;;5133753;27;19919;-49
2023/04/03 06:10:32;;;;;;;;;;;0.70;99.90;;;;;;5114776;27;20265;-48
2023/04/03 06:12:57;;;;;;;;;;;0.80;99.90;;;;;;5134090;27;19930;-51
2023/04/03 06:15:23;;;;;;;;;;;0.80;99.90;;;;;;5115406;27;19912;-49
2023/04/03 06:17:49;;;;;;;;;;;0.90;99.90;;;;;;5133170;27;19912;-51
2023/04/03 06:20:14;;;;;;;;;;;0.90;99.90;;;;;;5133780;27;19907;-51
2023/04/03 06:22:41;;;;;;;;;;;1.00;99.90;;;;;;5133839;27;20370;-48
2023/04/03 06:25:07;;;;;;;;;;;1.10;99.90;;;;;;5132877;27;19958;-47
2023/04/03 06:27:33;;;;;;;;;;;1.20;99.90;;;;;;5133900;27;19951;-51
2023/04/03 06:29:58;;;;;;;;;;;1.20;99.90;;;;;;5133622;27;19922;-50
2023/04/03 06:32:23;;;;;;;;;;;1.30;99.90;;;;;;5138062;27;19918;-47
2023/04/03 06:34:49;;;;;;;;;;;1.40;99.90;;;;;;5136256;27;19977;-45
2023/04/03 06:37:19;;;;;;;;;;;1.50;99.90;;;;;;5133442;27;19907;-50
2023/04/03 06:39:45;;;;;;;;;;;1.50;99.90;;;;;;5142811;27;20438;-49
2023/04/03 06:42:10;;;;;;;;;;;1.60;99.90;;;;;;5143967;27;20001;-45
2023/04/03 06:44:36;;;;;;;;;;;1.70;99.90;;;;;;5137045;27;19919;-49
2023/04/03 06:47:02;;;;;;;;;;;1.80;99.90;;;;;;5146619;27;19907;-47
2023/04/03 06:49:28;;;;;;;;;;;1.80;99.90;;;;;;5149375;27;19955;-48
2023/04/03 06:51:54;;;;;;;;;;;1.90;99.90;;;;;;5144331;27;19911;-49
2023/04/03 06:54:20;;;;;;;;;;;2.00;99.90;;;;;;5148505;27;19998;-49
2023/04/03 06:56:45;;;;;;;;;;;2.00;99.90;;;;;;5147204;27;19911;-50
2023/04/03 06:59:13;;;;;;;;;;;2.10;99.90;;;;;;5133372;28;20002;-49
2023/04/03 07:01:39;;;;;;;;;;;2.20;99.90;;;;;;5132357;28;20399;-48
2023/04/03 07:04:05;;;;;;;;;;;2.30;99.90;;;;;;5153945;27;19947;-48
2023/04/03 07:06:32;;;;;;;;;;;2.40;99.90;;;;;;5143276;27;19918;-49
2023/04/03 07:08:57;;;;;;;;;;;2.50;99.90;;;;;;5142096;27;19930;-49
2023/04/03 07:11:23;;;;;;;;;;;2.60;99.90;;;;;;5139534;27;19911;-48
2023/04/03 07:13:49;;;;;;;;;;;2.70;99.90;;;;;;5144682;27;19911;-46
2023/04/03 07:16:15;;;;;;;;;;;2.70;99.90;;;;;;5140120;27;20378;-46
2023/04/03 07:18:41;;;;;;;;;;;2.80;99.90;;;;;;5154027;27;19942;-48
2023/04/03 07:21:07;;;;;;;;;;;2.90;99.90;;;;;;5143302;27;19915;-49
2023/04/03 07:23:32;;;;;;;;;;;3.00;99.90;;;;;;5155027;27;19911;-49
2023/04/03 07:25:58;;;;;;;;;;;3.10;99.90;;;;;;5156339;27;19917;-48
2023/04/03 07:28:24;;;;;;;;;;;3.20;99.90;;;;;;5152384;27;20366;-49
2023/04/03 07:30:51;;;;;;;;;;;3.30;99.90;;;;;;5145971;27;19912;-47
2023/04/03 07:33:17;;;;;;;;;;;3.40;99.90;;;;;;5141699;27;19915;-46
2023/04/03 07:35:43;;;;;;;;;;;3.50;99.90;;;;;;5156616;27;19911;-47
2023/04/03 07:38:09;;;;;;;;;;;3.60;99.90;;;;;;5157481;27;19907;-49
2023/04/03 07:40:34;;;;;;;;;;;3.60;99.90;;;;;;5157626;27;19950;-50
2023/04/03 07:43:00;;;;;;;;;;;3.70;99.90;;;;;;5151942;27;19922;-46
2023/04/03 07:45:25;;;;;;;;;;;3.80;99.90;;;;;;5147053;27;19915;-48
2023/04/03 07:47:51;;;;;;;;;;;3.90;99.90;;;;;;5147536;27;19911;-46
2023/04/03 07:50:17;;;;;;;;;;;4.00;99.90;;;;;;5145756;27;19930;-46
2023/04/03 07:52:43;;;;;;;;;;;4.10;99.90;;;;;;5150029;27;19911;-49
2023/04/03 07:55:08;;;;;;;;;;;4.20;99.90;;;;;;5151325;27;19960;-48
2023/04/03 07:57:34;;;;;;;;;;;4.30;99.90;;;;;;5140278;27;19911;-45
2023/04/03 08:00:00;;;;;;;;;;;4.40;99.90;;;;;;5156163;27;19907;-45
2023/04/03 08:02:26;;;;;;;;;;;4.50;99.90;;;;;;5157351;27;19987;-49
2023/04/03 08:04:53;;;;;;;;;;;4.50;99.90;;;;;;5138999;27;19907;-46
2023/04/03 08:07:18;;;;;;;;;;;4.60;99.90;;;;;;5136876;27;19907;-50
2023/04/03 08:09:44;;;;;;;;;;;4.80;99.90;;;;;;5136337;27;19924;-47
2023/04/03 08:12:11;;;;;;;;;;;4.80;99.90;;;;;;5136833;27;19943;-49
2023/04/03 08:14:36;;;;;;;;;;;5.00;99.90;;;;;;5136900;27;20362;-46
2023/04/03 08:17:04;;;;;;;;;;;5.00;99.90;;;;;;5136284;27;19911;-47
2023/04/03 08:19:30;;;;;;;;;;;5.10;99.90;;;;;;5136662;27;19915;-48
2023/04/03 08:21:58;;;;;;;;;;;5.20;99.90;;;;;;5136177;27;19911;-44
2023/04/03 08:24:24;;;;;;;;;;;5.30;99.90;;;;;;5134987;27;20013;-47
2023/04/03 08:26:49;;;;;;;;;;;5.30;99.90;;;;;;5148475;27;20358;-50
2023/04/03 08:29:15;;;;;;;;;;;5.40;99.90;;;;;;5155929;27;19911;-47
2023/04/03 08:31:40;;;;;;;;;;;5.50;99.90;;;;;;5135692;27;19911;-51
2023/04/03 08:34:06;;;;;;;;;;;5.60;99.90;;;;;;5136308;27;19912;-47
2023/04/03 08:36:31;;;;;;;;;;;5.70;99.90;;;;;;5136657;27;19908;-48
2023/04/03 08:38:57;;;;;;;;;;;5.70;99.90;;;;;;5136086;27;19908;-48
2023/04/03 08:41:31;;;;;;;;;;;5.90;99.90;;;;;;5142735;27;19931;-48
2023/04/03 08:44:19;;;;;;;;;;;5.90;99.90;;;;;;5147301;27;20002;-47
2023/04/03 08:46:53;;;;;;;;;;;6.00;99.90;;;;;;5143382;27;19985;-48
2023/04/03 08:49:24;;;;;;;;;;;6.10;99.90;;;;;;5135918;27;19938;-46
2023/04/03 08:51:50;;;;;;;;;;;6.10;99.90;;;;;;5136170;27;19972;-47
2023/04/03 08:54:29;;;;;;;;;;;6.20;99.90;;;;;;5135019;27;19939;-46
2023/04/03 08:56:54;;;;;;;;;;;6.30;99.90;;;;;;5136113;27;20370;-49
2023/04/03 08:59:24;;;;;;;;;;;6.50;99.90;;;;;;5135319;27;19978;-50
2023/04/03 09:01:51;;;;;;;;;;;6.60;99.90;;;;;;5136155;27;19926;-47
2023/04/03 09:04:16;;;;;;;;;;;6.60;99.90;;;;;;5139453;27;19969;-47
2023/04/03 09:06:48;;;;;;;;;;;6.70;99.90;;;;;;5149164;27;19914;-47
2023/04/03 09:09:20;;;;;;;;;;;6.90;99.90;;;;;;5145161;27;20007;-51
2023/04/03 09:11:51;;;;;;;;;;;6.90;93.00;;;;;;5136088;27;19972;-46
2023/04/03 09:14:26;;;;;;;;;;;7.00;99.90;;;;;;5137117;27;19915;-47
2023/04/03 09:16:56;;;;;;;;;;;7.10;99.90;;;;;;5140592;27;19919;-46
2023/04/03 09:19:36;;;;;;;;;;;7.20;97.80;;;;;;5144858;27;19914;-49
2023/04/03 09:22:20;;;;;;;;;;;7.30;97.20;;;;;;5139280;27;19911;-46
2023/04/03 09:24:46;;;;;;;;;;;7.40;85.20;;;;;;5135758;27;19911;-49
2023/04/03 09:27:12;;;;;;;;;;;7.40;99.90;;;;;;5133724;27;19919;-49
2023/04/03 09:29:40;;;;;;;;;;;7.50;99.90;;;;;;5135532;27;19923;-48
2023/04/03 09:32:24;;;;;;;;;;;7.60;99.90;;;;;;5143011;27;19907;-46
2023/04/03 09:34:51;;;;;;;;;;;7.70;96.70;;;;;;5140606;27;19911;-47
2023/04/03 09:37:36;;;;;;;;;;;7.70;99.90;;;;;;5150021;27;19911;-47
2023/04/03 09:40:04;;;;;;;;;;;7.70;98.70;;;;;;5155044;27;19990;-48
2023/04/03 09:42:30;;;;;;;;;;;7.90;99.90;;;;;;5154697;27;20005;-47
2023/04/03 09:44:56;;;;;;;;;;;8.00;98.70;;;;;;5134950;27;19920;-49
2023/04/03 09:47:34;;;;;;;;;;;8.00;99.90;;;;;;5141552;27;19911;-47
2023/04/03 09:50:15;;;;;;;;;;;8.10;99.90;;;;;;5135449;27;19948;-47
2023/04/03 09:52:42;;;;;;;;;;;8.20;95.50;;;;;;5129971;27;19912;-47
2023/04/03 09:55:13;;;;;;;;;;;8.30;98.10;;;;;;5134509;27;19907;-46
2023/04/03 09:57:39;;;;;;;;;;;8.40;99.90;;;;;;5137178;27;19911;-46
2023/04/03 10:00:05;;;;;;;;;;;8.50;99.90;;;;;;5134257;27;19918;-47
2023/04/03 10:02:31;;;;;;;;;;;8.50;99.90;;;;;;5153859;27;19923;-48
2023/04/03 10:04:56;;;;;;;;;;;8.60;99.10;;;;;;5154832;27;19915;-46
2023/04/03 10:07:40;;;;;;;;;;;8.70;99.70;;;;;;5154290;27;19908;-47
2023/04/03 10:10:14;;;;;;;;;;;8.80;95.80;;;;;;5153802;27;19919;-52
2023/04/03 10:12:40;;;;;;;;;;;8.80;99.90;;;;;;5151960;27;19907;-46
2023/04/03 10:15:12;;;;;;;;;;;8.80;92.30;;;;;;5134980;27;20299;-45
2023/04/03 10:17:47;;;;;;;;;;;8.90;99.90;;;;;;5151403;27;19914;-49
2023/04/03 10:20:31;;;;;;;;;;;9.00;92.40;;;;;;5142165;27;20365;-48
2023/04/03 10:23:00;;;;;;;;;;;9.10;98.40;;;;;;5147036;27;19915;-48
2023/04/03 10:25:32;;;;;;;;;;;9.10;65.00;;;;;;5138278;27;19997;-46
2023/04/03 10:27:59;;;;;;;;;;;9.20;86.00;;;;;;5146490;27;19937;-45
2023/04/03 10:30:25;;;;;;;;;;;9.30;90.30;;;;;;5133012;27;19923;-47
2023/04/03 10:33:13;;;;;;;;;;;9.30;95.50;;;;;;5135538;27;19915;-46
2023/04/03 10:35:45;;;;;;;;;;;9.30;66.60;;;;;;5154641;27;20007;-47
2023/04/03 10:38:20;;;;;;;;;;;9.50;80.70;;;;;;5142847;27;19915;-46
2023/04/03 10:40:49;;;;;;;;;;;9.60;81.80;;;;;;5134317;27;19912;-48
2023/04/03 10:43:15;;;;;;;;;;;9.60;84.70;;;;;;5134117;27;19915;-45
2023/04/03 10:45:46;;;;;;;;;;;9.80;95.80;;;;;;5134166;27;19907;-45
2023/04/03 10:48:18;;;;;;;;;;;9.80;73.50;;;;;;5136534;27;19912;-51
2023/04/03 10:50:47;;;;;;;;;;;9.90;65.40;;;;;;5149520;27;19923;-48
2023/04/03 10:53:21;;;;;;;;;;;9.80;60.10;;;;;;5137546;27;19980;-47
2023/04/03 10:55:53;;;;;;;;;;;9.90;62.30;;;;;;5138218;27;19922;-50
2023/04/03 10:58:26;;;;;;;;;;;9.90;65.30;;;;;;5138250;27;20361;-47
2023/04/03 11:00:53;;;;;;;;;;;10.00;64.10;;;;;;5138191;27;19915;-47
2023/04/03 11:03:37;;;;;;;;;;;10.00;58.80;;;;;;5141371;27;19919;-45
2023/04/03 11:06:05;;;;;;;;;;;9.90;57.60;;;;;;5144972;27;19918;-46
2023/04/03 11:08:34;;;;;;;;;;;10.00;66.50;;;;;;5139263;27;19919;-46
2023/04/03 11:11:02;;;;;;;;;;;10.20;71.40;;;;;;5154298;27;20161;-49
2023/04/03 11:13:28;;;;;;;;;;;10.40;70.00;;;;;;5136780;27;19998;-48
2023/04/03 11:15:54;;;;;;;;;;;10.40;63.50;;;;;;5138801;27;20007;-48
2023/04/03 11:18:26;;;;;;;;;;;10.50;60.00;;;;;;5142428;27;19918;-48
2023/04/03 11:20:58;;;;;;;;;;;10.60;65.60;;;;;;5136485;27;19962;-47
2023/04/03 11:23:30;;;;;;;;;;;10.70;68.10;;;;;;5137292;27;19915;-49
2023/04/03 11:26:01;;;;;;;;;;;10.80;64.00;;;;;;5137293;27;19907;-48
2023/04/03 11:28:27;;;;;;;;;;;10.60;57.70;;;;;;5136326;27;19907;-47
2023/04/03 11:31:15;;;;;;;;;;;10.70;60.00;;;;;;5137035;27;19969;-48
2023/04/03 11:33:48;;;;;;;;;;;10.70;60.90;;;;;;5137038;27;19908;-48
2023/04/03 11:36:19;;;;;;;;;;;10.80;60.60;;;;;;5157296;27;19911;-46
2023/04/03 11:38:47;;;;;;;;;;;10.90;60.80;;;;;;5157663;27;19960;-47
2023/04/03 11:41:13;;;;;;;;;;;10.90;58.00;;;;;;5157826;27;20368;-49
2023/04/03 11:43:40;;;;;;;;;;;10.90;58.70;;;;;;5158091;27;20006;-49
2023/04/03 11:46:06;;;;;;;;;;;11.00;61.40;;;;;;5156406;27;19911;-48
2023/04/03 11:48:51;;;;;;;;;;;11.00;58.00;;;;;;5142894;27;19911;-49
2023/04/03 11:51:29;;;;;;;;;;;10.90;53.10;;;;;;5151836;27;19919;-47
2023/04/03 11:53:54;;;;;;;;;;;11.10;57.20;;;;;;5155916;27;19907;-50
2023/04/03 11:56:19;;;;;;;;;;;11.00;55.60;;;;;;5155939;27;19959;-48
2023/04/03 11:59:05;;;;;;;;;;;11.00;51.90;;;;;;5157321;27;19967;-45
2023/04/03 12:01:46;;;;;;;;;;;11.00;53.80;;;;;;5157288;27;19923;-48
2023/04/03 12:04:15;;;;;;;;;;;11.30;67.80;;;;;;5136587;27;19912;-47
2023/04/03 12:06:40;;;;;;;;;;;11.40;70.70;;;;;;5136887;27;19921;-48
2023/04/03 12:09:25;;;;;;;;;;;11.60;69.90;;;;;;5135975;27;19919;-47
2023/04/03 12:11:51;;;;;;;;;;;11.70;77.30;;;;;;5141228;27;19919;-48
2023/04/03 12:14:17;;;;;;;;;;;11.80;77.50;;;;;;5134995;27;19935;-48
2023/04/03 12:16:45;;;;;;;;;;;11.80;57.90;;;;;;5140707;27;19965;-46
2023/04/03 12:19:14;;;;;;;;;;;11.80;55.30;;;;;;5138329;27;19911;-48
2023/04/03 12:21:46;;;;;;;;;;;11.90;62.30;;;;;;5143605;27;19915;-46
2023/04/03 12:24:17;;;;;;;;;;;12.00;62.30;;;;;;5156085;27;19918;-45
2023/04/03 12:26:59;;;;;;;;;;;12.00;57.10;;;;;;5155785;27;19915;-55
2023/04/03 12:29:29;;;;;;;;;;;12.10;62.00;;;;;;5134638;27;19915;-46
2023/04/03 12:31:54;;;;;;;;;;;12.10;59.00;;;;;;5144367;27;19917;-50
2023/04/03 12:34:35;;;;;;;;;;;12.10;58.90;;;;;;5156772;27;19994;-48
2023/04/03 12:37:05;;;;;;;;;;;12.10;61.60;;;;;;5140544;27;19912;-47
2023/04/03 12:39:48;;;;;;;;;;;12.00;53.60;;;;;;5136037;27;19950;-50
2023/04/03 12:42:26;;;;;;;;;;;11.90;59.00;;;;;;5147075;27;19911;-48
2023/04/03 12:44:54;;;;;;;;;;;12.00;66.40;;;;;;5155964;27;20376;-49
2023/04/03 12:47:22;;;;;;;;;;;12.20;80.20;;;;;;5155138;27;20362;-47
2023/04/03 12:49:49;;;;;;;;;;;12.30;65.60;;;;;;5149098;27;19919;-47
2023/04/03 12:52:30;;;;;;;;;;;12.30;71.30;;;;;;5138922;27;19916;-49
2023/04/03 12:54:56;;;;;;;;;;;12.40;58.50;;;;;;5154398;27;20018;-49
2023/04/03 12:57:26;;;;;;;;;;;12.50;55.30;;;;;;5155636;27;19938;-49
2023/04/03 12:59:51;;;;;;;;;;;12.50;56.30;;;;;;5155286;27;19955;-46
2023/04/03 13:02:23;;;;;;;;;;;12.70;55.40;;;;;;5155201;27;19999;-46
2023/04/03 13:04:49;;;;;;;;;;;12.50;52.30;;;;;;5155900;27;19929;-49
2023/04/03 13:07:19;;;;;;;;;;;12.40;53.10;;;;;;5144363;27;20378;-47
2023/04/03 13:09:54;;;;;;;;;;;12.40;53.00;;;;;;5134968;27;19994;-48
2023/04/03 13:12:20;;;;;;;;;;;12.60;55.60;;;;;;5134291;27;20035;-50
2023/04/03 13:14:53;;;;;;;;;;;12.80;50.90;;;;;;5134465;27;19994;-47
2023/04/03 13:17:19;;;;;;;;;;;12.90;51.10;;;;;;5145673;27;19915;-48
2023/04/03 13:19:48;;;;;;;;;;;13.20;53.50;;;;;;5156141;27;20017;-46
2023/04/03 13:22:22;;;;;;;;;;;13.30;51.80;;;;;;5156330;27;19911;-48
2023/04/03 13:24:49;;;;;;;;;;;13.20;46.90;;;;;;5156253;27;20345;-49
2023/04/03 13:27:15;;;;;;;;;;;13.20;51.60;;;;;;5155482;27;19907;-50
2023/04/03 13:29:40;;;;;;;;;;;13.40;49.40;;;;;;5145340;27;20010;-46
2023/04/03 13:32:06;;;;;;;;;;;13.40;48.30;;;;;;5127778;27;20389;-49
2023/04/03 13:34:40;;;;;;;;;;;13.60;50.00;;;;;;5153025;27;19994;-48
2023/04/03 13:37:07;;;;;;;;;;;13.90;57.40;;;;;;5153733;27;19911;-49
2023/04/03 13:39:34;;;;;;;;;;;14.10;48.30;;;;;;5139235;27;20374;-48
2023/04/03 13:42:02;;;;;;;;;;;14.00;55.40;;;;;;5134447;27;19914;-47
2023/04/03 13:44:33;;;;;;;;;;;13.90;47.40;;;;;;5135223;27;19914;-47
2023/04/03 13:47:11;;;;;;;;;;;13.90;48.40;;;;;;5135073;27;19943;-48
2023/04/03 13:49:38;;;;;;;;;;;13.80;46.50;;;;;;5134542;27;20003;-47
2023/04/03 13:52:25;;;;;;;;;;;13.80;48.20;;;;;;5134960;27;20495;-47
2023/04/03 13:54:55;;;;;;;;;;;14.20;48.70;;;;;;5134485;27;20406;-51
2023/04/03 13:57:21;;;;;;;;;;;14.30;48.00;;;;;;5134282;27;19907;-48
2023/04/03 13:59:47;;;;;;;;;;;14.30;46.50;;;;;;5134829;27;19998;-48
2023/04/03 14:02:12;;;;;;;;;;;14.50;48.40;;;;;;5133726;27;20002;-47
2023/04/03 14:04:44;;;;;;;;;;;14.60;46.70;;;;;;5134610;27;19998;-49
2023/04/03 14:07:10;;;;;;;;;;;14.80;47.20;;;;;;5147040;27;19911;-49
2023/04/03 14:09:36;;;;;;;;;;;14.90;46.80;;;;;;5154678;27;20289;-47
2023/04/03 14:12:04;;;;;;;;;;;15.30;48.00;;;;;;5155167;27;19907;-46
2023/04/03 14:14:31;;;;;;;;;;;15.50;46.60;;;;;;5155135;27;19907;-50
2023/04/03 14:16:59;;;;;;;;;;;15.70;44.90;;;;;;5154732;27;19911;-47
2023/04/03 14:19:27;;;;;;;;;;;15.70;46.10;;;;;;5155061;27;19959;-46
2023/04/03 14:21:53;;;;;;;;;;;15.60;41.90;;;;;;5154828;27;20446;-49
2023/04/03 14:24:20;;;;;;;;;;;15.70;42.20;;;;;;5142246;27;19951;-48
2023/04/03 14:26:45;;;;;;;;;;;15.90;48.60;;;;;;5134362;27;19995;-48
2023/04/03 14:29:12;;;;;;;;;;;15.80;40.70;;;;;;5134314;27;19958;-48